createdAt,value
2018-04-07T00:08:05.044Z,7.8
2018-04-07T00:24:42.134Z,7.5
2018-04-07T00:41:18.632Z,7.5
2018-04-07T00:57:55.093Z,7.2
2018-04-07T01:14:32.341Z,7.2
2018-04-07T01:31:08.529Z,6.9
2018-04-07T01:47:45.482Z,6.9
2018-04-07T02:04:21.370Z,6.6
2018-04-07T02:20:57.655Z,6.6
2018-04-07T02:37:33.722Z,6.6
2018-04-07T02:54:10.452Z,6.6
2018-04-07T03:10:46.126Z,6.2
2018-04-07T03:27:22.310Z,6.2
2018-04-07T03:43:58.425Z,6.2
2018-04-07T04:00:34.222Z,6.2
2018-04-07T04:17:10.520Z,6.2
2018-04-07T04:33:46.268Z,5.9
2018-04-07T04:50:21.893Z,5.9
2018-04-07T05:06:57.729Z,5.9
2018-04-07T05:23:33.179Z,5.9
2018-04-07T05:40:09.391Z,6.6
2018-04-07T05:56:46.837Z,6.9
2018-04-07T06:13:22.390Z,7.5
2018-04-07T06:26:40.276Z,8.2
2018-04-07T06:36:38.744Z,8.8
2018-04-07T06:49:57.205Z,9.4
2018-04-07T06:59:56.556Z,10.1
2018-04-07T07:16:35.609Z,10.4
2018-04-07T07:33:14.999Z,10.7
2018-04-07T07:49:54.801Z,11.0
2018-04-07T08:06:35.033Z,11.7
2018-04-07T08:19:55.162Z,12.3
2018-04-07T08:33:15.942Z,13.0
2018-04-07T08:46:37.194Z,13.6
2018-04-07T08:59:58.810Z,14.2
2018-04-07T09:13:20.800Z,14.9
2018-04-07T09:23:22.637Z,15.5
2018-04-07T09:36:45.534Z,16.2
2018-04-07T09:43:27.098Z,16.2
2018-04-07T09:53:29.681Z,16.8
2018-04-07T10:03:32.493Z,17.4
2018-04-07T10:16:57.501Z,17.8
2018-04-07T10:30:21.209Z,18.4
2018-04-07T10:47:07.213Z,19.0
2018-04-07T11:00:32.508Z,19.4
2018-04-07T11:07:15.219Z,19.4
2018-04-07T11:13:58.100Z,20.0
2018-04-07T11:27:24.102Z,20.6
2018-04-07T11:40:50.640Z,21.3
2018-04-07T11:57:39.264Z,21.6
2018-04-07T12:14:28.260Z,21.6
2018-04-07T12:31:17.375Z,21.9
2018-04-07T12:48:06.725Z,22.2
2018-04-07T13:01:34.484Z,22.9
2018-04-07T13:18:26.220Z,22.9
2018-04-07T13:31:52.688Z,23.5
2018-04-07T13:48:43.184Z,23.5
2018-04-07T14:05:33.700Z,23.5
2018-04-07T14:22:24.324Z,23.8
2018-04-07T14:39:15.163Z,23.8
2018-04-07T14:56:06.066Z,23.8
2018-04-07T15:12:56.382Z,23.5
2018-04-07T15:29:46.945Z,23.5
2018-04-07T15:46:37.426Z,23.5
2018-04-07T16:03:28.032Z,23.5
2018-04-07T16:20:18.601Z,23.5
2018-04-07T16:33:47.189Z,24.2
2018-04-07T16:50:38.491Z,24.5
2018-04-07T17:00:45.326Z,23.8
2018-04-07T17:07:29.558Z,23.2
2018-04-07T17:14:13.652Z,22.6
2018-04-07T17:27:41.189Z,21.9
2018-04-07T17:44:29.990Z,21.3
2018-04-07T18:01:18.204Z,20.6
2018-04-07T18:18:05.872Z,20.0
2018-04-07T18:34:52.893Z,19.7
2018-04-07T18:44:56.953Z,19.0
2018-04-07T19:01:43.123Z,18.7
2018-04-07T19:18:29.030Z,18.4
2018-04-07T19:28:32.334Z,17.8
2018-04-07T19:45:17.344Z,17.1
2018-04-07T20:02:02.373Z,17.1
2018-04-07T20:18:46.433Z,16.8
2018-04-07T20:35:30.524Z,16.2
2018-04-07T20:52:14.459Z,16.2
2018-04-07T21:08:58.034Z,15.8
2018-04-07T21:25:41.378Z,15.5
2018-04-07T21:42:24.623Z,15.5
2018-04-07T21:59:07.851Z,15.2
2018-04-07T22:15:50.889Z,14.9
2018-04-07T22:32:33.524Z,14.6
2018-04-07T22:49:16.629Z,14.6
2018-04-07T23:05:58.703Z,14.2
2018-04-07T23:22:41.049Z,13.9
2018-04-07T23:39:22.977Z,13.6
2018-04-07T23:56:04.991Z,13.6
